Terminal Aerodrome Forecast
Issued by NWS Northern Indiana

Home | Current Version | Previous Version | Text Only | Print | Product List | Glossary On
Versions: 1 2 3 4 5 6 7 8 9 10 11 12 13 14
000
FTUS43 KIWX 241901 AAB
TAFFWA
TAF AMD
KFWA 241901Z 2419/2518 08008KT P6SM -SHRA VCTS BKN030CB BKN080
      TEMPO 2419/2420 3SM -TSRA BKN025CB
     FM242300 04005KT 4SM SHRA VCTS OVC030CB
     FM250600 02006KT 3SM SHRA OVC008
     FM251200 34007KT P6SM VCSH OVC008
     FM251600 32009KT P6SM VCSH OVC020=

USA.gov is the U.S. government's official web portal to all federal, state and local government web resources and services.